createdAt,value
2016-06-18T00:00:47.741Z,0
2016-06-18T00:02:02.684Z,0
2016-06-18T00:02:47.795Z,0
2016-06-18T00:03:47.830Z,0
2016-06-18T00:05:02.755Z,0
2016-06-18T00:06:02.759Z,0
2016-06-18T00:06:47.981Z,0
2016-06-18T00:07:47.907Z,0
2016-06-18T00:08:47.941Z,0
2016-06-18T00:09:47.992Z,0
2016-06-18T00:10:47.996Z,0
2016-06-18T00:12:02.921Z,0
2016-06-18T00:12:48.034Z,0
2016-06-18T00:13:48.068Z,0
2016-06-18T00:14:48.071Z,0
2016-06-18T00:15:48.106Z,0
2016-06-18T00:16:48.735Z,0
2016-06-18T00:17:48.144Z,0
2016-06-18T00:19:03.085Z,0
2016-06-18T00:19:48.213Z,0
2016-06-18T00:21:03.139Z,0
2016-06-18T00:21:48.253Z,0
2016-06-18T00:22:48.896Z,0
2016-06-18T00:24:48.325Z,0
2016-06-18T00:25:49.547Z,0
2016-06-18T00:26:48.379Z,0
2016-06-18T00:27:48.398Z,0
2016-06-18T00:28:48.433Z,0
2016-06-18T00:29:48.467Z,0
2016-06-18T00:30:49.095Z,0
2016-06-18T00:31:48.491Z,0
2016-06-18T00:32:48.540Z,0
2016-06-18T00:33:48.575Z,0
2016-06-18T00:34:48.578Z,0
2016-06-18T00:36:03.504Z,0
2016-06-18T00:37:03.539Z,0
2016-06-18T00:40:03.596Z,0
2016-06-18T00:40:48.724Z,0
2016-06-18T00:41:48.744Z,0
2016-06-18T00:42:48.779Z,0
2016-06-18T00:44:03.688Z,0
2016-06-18T00:44:48.816Z,0
2016-06-18T00:45:48.835Z,0
2016-06-18T00:46:48.870Z,0
2016-06-18T00:47:48.904Z,0
2016-06-18T00:48:48.908Z,0
2016-06-18T00:49:48.942Z,0
2016-06-18T00:50:48.961Z,0
2016-06-18T00:52:03.888Z,0
2016-06-18T00:53:03.907Z,0
2016-06-18T00:53:49.066Z,0
2016-06-18T00:54:49.070Z,0
2016-06-18T00:55:49.667Z,0
2016-06-18T00:56:49.717Z,0
2016-06-18T00:57:49.127Z,0
2016-06-18T00:58:49.162Z,0
2016-06-18T01:00:04.087Z,0
2016-06-18T01:00:49.200Z,0
2016-06-18T01:02:49.237Z,0
2016-06-18T01:03:49.288Z,0
2016-06-18T01:04:49.354Z,0
2016-06-18T01:05:49.983Z,0
2016-06-18T01:06:49.967Z,0
2016-06-18T01:07:49.986Z,0
2016-06-18T01:08:49.396Z,0
2016-06-18T01:10:49.449Z,0
2016-06-18T01:11:50.062Z,0
2016-06-18T01:12:49.504Z,0
2016-06-18T01:13:49.522Z,0
2016-06-18T01:14:49.542Z,0
2016-06-18T01:16:05.079Z,0
2016-06-18T01:16:49.642Z,0
2016-06-18T01:17:50.224Z,0
2016-06-18T01:18:49.633Z,0
2016-06-18T01:19:49.684Z,0
2016-06-18T01:20:50.281Z,0
2016-06-18T01:21:49.722Z,0
2016-06-18T01:22:50.335Z,0
2016-06-18T01:24:04.671Z,0
2016-06-18T01:26:49.833Z,0
2016-06-18T01:27:49.853Z,0
2016-06-18T01:29:04.781Z,0
2016-06-18T01:30:05.425Z,0
2016-06-18T01:30:49.925Z,0
2016-06-18T01:32:04.870Z,0
2016-06-18T01:32:49.979Z,0
2016-06-18T01:33:50.061Z,0
2016-06-18T01:34:50.017Z,0
2016-06-18T01:35:50.052Z,0
2016-06-18T01:36:50.711Z,0
2016-06-18T01:37:50.105Z,0
2016-06-18T01:38:50.125Z,0
2016-06-18T01:39:50.144Z,0
2016-06-18T01:41:05.088Z,0
2016-06-18T01:41:50.198Z,0
2016-06-18T01:43:05.126Z,0
2016-06-18T01:43:50.251Z,0
2016-06-18T01:44:50.270Z,0
2016-06-18T01:47:05.219Z,0
2016-06-18T01:48:05.253Z,0
2016-06-18T01:48:50.362Z,0
2016-06-18T01:49:50.382Z,0
2016-06-18T01:50:50.417Z,0
2016-06-18T01:51:50.450Z,0
2016-06-18T01:53:05.365Z,0
2016-06-18T01:53:50.490Z,0
2016-06-18T01:55:50.533Z,0
2016-06-18T01:57:05.483Z,0
2016-06-18T01:57:50.624Z,0
2016-06-18T01:58:50.631Z,0
2016-06-18T01:59:50.652Z,4
2016-06-18T02:00:50.687Z,4
2016-06-18T02:01:50.739Z,4
2016-06-18T02:02:50.728Z,4
2016-06-18T02:03:50.748Z,0
2016-06-18T02:04:50.783Z,4
2016-06-18T02:05:50.818Z,4
2016-06-18T02:07:05.732Z,4
2016-06-18T02:08:05.752Z,4
2016-06-18T02:08:50.877Z,8
2016-06-18T02:09:50.897Z,4
2016-06-18T02:10:51.525Z,8
2016-06-18T02:11:50.951Z,8
2016-06-18T02:12:50.970Z,12
2016-06-18T02:13:50.990Z,12
2016-06-18T02:15:05.919Z,12
2016-06-18T02:15:51.044Z,12
2016-06-18T02:16:51.062Z,16
2016-06-18T02:17:51.098Z,16
2016-06-18T02:19:06.025Z,20
2016-06-18T02:19:51.135Z,20
2016-06-18T02:20:51.154Z,24
2016-06-18T02:21:51.204Z,24
2016-06-18T02:23:51.258Z,32
2016-06-18T02:24:51.278Z,32
2016-06-18T02:25:51.312Z,36
2016-06-18T02:26:51.316Z,40
2016-06-18T02:27:51.350Z,44
2016-06-18T02:28:51.385Z,52
2016-06-18T02:29:51.373Z,56
2016-06-18T02:31:51.442Z,68
2016-06-18T02:32:51.462Z,76
2016-06-18T02:33:51.481Z,80
2016-06-18T02:35:06.410Z,88
2016-06-18T02:35:51.535Z,96
2016-06-18T02:36:51.554Z,100
2016-06-18T02:37:52.181Z,104
2016-06-18T02:38:52.201Z,116
2016-06-18T02:39:51.627Z,120
2016-06-18T02:40:51.646Z,136
2016-06-18T02:41:51.680Z,148
2016-06-18T02:42:51.699Z,160
2016-06-18T02:43:51.733Z,172
2016-06-18T02:44:51.753Z,184
2016-06-18T02:45:51.773Z,196
2016-06-18T02:46:51.806Z,212
2016-06-18T02:47:51.826Z,228
2016-06-18T02:48:51.861Z,244
2016-06-18T02:49:51.880Z,272
2016-06-18T02:51:06.808Z,300
2016-06-18T02:51:52.527Z,316
2016-06-18T02:52:51.953Z,340
2016-06-18T02:53:52.581Z,368
2016-06-18T02:54:52.021Z,392
2016-06-18T02:55:52.010Z,420
2016-06-18T02:57:06.939Z,456
2016-06-18T02:57:52.079Z,476
2016-06-18T02:58:52.083Z,500
2016-06-18T02:59:52.727Z,532
2016-06-18T03:00:52.136Z,564
2016-06-18T03:01:52.796Z,596
2016-06-18T03:02:52.206Z,636
2016-06-18T03:03:52.819Z,676
2016-06-18T03:04:52.838Z,720
2016-06-18T03:05:52.263Z,764
2016-06-18T03:07:07.192Z,820
2016-06-18T03:08:52.336Z,908
2016-06-18T03:09:52.386Z,960
2016-06-18T03:10:52.374Z,1008
2016-06-18T03:12:07.319Z,1056
2016-06-18T03:12:52.428Z,1092
2016-06-18T03:13:52.462Z,1140
2016-06-18T03:15:52.516Z,1244
2016-06-18T03:16:52.536Z,1296
2016-06-18T03:17:52.555Z,1348
2016-06-18T03:19:07.483Z,1432
2016-06-18T03:19:52.608Z,1488
2016-06-18T03:20:52.611Z,1564
2016-06-18T03:22:07.557Z,1652
2016-06-18T03:22:52.682Z,1708
2016-06-18T03:23:52.700Z,1800
2016-06-18T03:24:52.704Z,1908
2016-06-18T03:25:52.754Z,2000
2016-06-18T03:26:52.789Z,2092
2016-06-18T03:27:52.792Z,2200
2016-06-18T03:28:52.827Z,2300
2016-06-18T03:29:52.861Z,2396
2016-06-18T03:31:07.760Z,2528
2016-06-18T03:31:52.900Z,2612
2016-06-18T03:32:53.512Z,2712
2016-06-18T03:33:52.938Z,2820
2016-06-18T03:34:52.957Z,2916
2016-06-18T03:35:53.602Z,3012
2016-06-18T03:36:53.010Z,3112
2016-06-18T03:37:53.030Z,3228
2016-06-18T03:38:53.049Z,3336
2016-06-18T03:40:07.994Z,3416
2016-06-18T03:40:53.119Z,3496
2016-06-18T03:41:53.122Z,3568
2016-06-18T03:43:08.066Z,3716
2016-06-18T03:43:53.191Z,3828
2016-06-18T03:45:08.105Z,4032
2016-06-18T03:45:53.230Z,4136
2016-06-18T03:46:53.858Z,4292
2016-06-18T03:47:53.268Z,4436
2016-06-18T03:48:54.537Z,4588
2016-06-18T03:49:53.322Z,4708
2016-06-18T03:50:53.356Z,4916
2016-06-18T03:51:53.391Z,5092
2016-06-18T03:52:53.394Z,5244
2016-06-18T03:54:08.323Z,5564
2016-06-18T03:54:53.448Z,5636
2016-06-18T03:55:54.076Z,5648
2016-06-18T03:56:53.486Z,5788
2016-06-18T03:57:53.521Z,6068
2016-06-18T03:58:53.556Z,6644
2016-06-18T03:59:53.575Z,6296
2016-06-18T04:01:09.097Z,6076
2016-06-18T04:01:53.628Z,6236
2016-06-18T04:02:53.648Z,6340
2016-06-18T04:04:09.171Z,6592
2016-06-18T04:04:53.686Z,6740
2016-06-18T04:05:53.721Z,6984
2016-06-18T04:07:08.649Z,7184
2016-06-18T04:07:54.368Z,7300
2016-06-18T04:08:53.794Z,7940
2016-06-18T04:10:08.708Z,10664
2016-06-18T04:10:53.833Z,13792
2016-06-18T04:11:53.890Z,18528
2016-06-18T04:12:53.900Z,22304
2016-06-18T04:13:53.926Z,24032
2016-06-18T04:14:53.981Z,23936
2016-06-18T04:15:53.990Z,24640
2016-06-18T04:17:54.642Z,26368
2016-06-18T04:18:54.069Z,28064
2016-06-18T04:19:54.091Z,30240
2016-06-18T04:20:54.127Z,30784
2016-06-18T04:21:54.148Z,32288
2016-06-18T04:22:54.182Z,31648
2016-06-18T04:24:09.128Z,32640
2016-06-18T04:24:54.238Z,34208
2016-06-18T04:26:09.168Z,34688
2016-06-18T04:26:54.293Z,35168
2016-06-18T04:27:54.313Z,36128
2016-06-18T04:29:54.367Z,39392
2016-06-18T04:30:54.387Z,38240
2016-06-18T04:31:54.421Z,38272
2016-06-18T04:33:09.366Z,41312
2016-06-18T04:33:54.491Z,42496
2016-06-18T04:34:54.509Z,43072
2016-06-18T04:36:54.595Z,43456
2016-06-18T04:37:55.191Z,45024
2016-06-18T04:38:54.633Z,46816
2016-06-18T04:39:54.652Z,47264
2016-06-18T04:40:54.686Z,46784
2016-06-18T04:42:09.615Z,48288
2016-06-18T04:42:54.740Z,50048
2016-06-18T04:43:54.775Z,50112
2016-06-18T04:44:54.810Z,51104
2016-06-18T04:45:54.845Z,51456
2016-06-18T04:46:54.848Z,52224
2016-06-18T04:47:54.898Z,56192
2016-06-18T04:49:55.546Z,55776
2016-06-18T04:50:54.971Z,54464
2016-06-18T04:52:55.635Z,57120
2016-06-18T04:53:55.075Z,59520
2016-06-18T04:54:55.703Z,59296
2016-06-18T04:55:55.129Z,58016
2016-06-18T04:57:55.199Z,59232
2016-06-18T04:58:55.233Z,60608
2016-06-18T04:59:55.268Z,59904
2016-06-18T05:00:55.287Z,60864
2016-06-18T05:01:55.930Z,61280
2016-06-18T05:02:55.356Z,63136
2016-06-18T05:03:55.391Z,66016
2016-06-18T05:04:55.410Z,63200
2016-06-18T05:05:55.461Z,59584
2016-06-18T05:06:55.480Z,58240
2016-06-18T05:08:10.424Z,59968
2016-06-18T05:08:56.783Z,61056
2016-06-18T05:09:56.225Z,63232
2016-06-18T05:10:55.602Z,65888
2016-06-18T05:11:55.637Z,68000
2016-06-18T05:12:55.672Z,67040
2016-06-18T05:13:55.708Z,68864
2016-06-18T05:14:55.741Z,70272
2016-06-18T05:16:10.685Z,69536
2016-06-18T05:17:10.721Z,67584
2016-06-18T05:18:55.881Z,69504
2016-06-18T05:19:55.899Z,68864
2016-06-18T05:20:55.934Z,67840
2016-06-18T05:23:10.914Z,70944
2016-06-18T05:23:56.039Z,67936
2016-06-18T05:24:56.074Z,64288
2016-06-18T05:25:56.107Z,66912
2016-06-18T05:26:56.142Z,69408
2016-06-18T05:29:11.105Z,70912
2016-06-18T05:29:56.246Z,70624
2016-06-18T05:30:56.859Z,63968
2016-06-18T05:31:56.300Z,72960
2016-06-18T05:33:11.245Z,71424
2016-06-18T05:33:56.386Z,69440
2016-06-18T05:34:56.404Z,69568
2016-06-18T05:35:56.439Z,75200
2016-06-18T05:37:11.383Z,74368
2016-06-18T05:37:56.508Z,72608
2016-06-18T05:38:56.543Z,74880
2016-06-18T05:39:56.578Z,79840
2016-06-18T05:40:56.629Z,78848
2016-06-18T05:42:56.683Z,71296
2016-06-18T05:43:56.764Z,73472
2016-06-18T05:45:11.661Z,78656
2016-06-18T05:45:56.786Z,79840
2016-06-18T05:47:11.731Z,78976
2016-06-18T05:47:56.856Z,77760
2016-06-18T05:48:56.890Z,78400
2016-06-18T05:50:56.960Z,80352
2016-06-18T05:52:11.904Z,81856
2016-06-18T05:52:57.029Z,80384
2016-06-18T05:53:57.063Z,80000
2016-06-18T05:54:57.708Z,79744
2016-06-18T05:56:57.168Z,78688
2016-06-18T05:57:57.203Z,78624
2016-06-18T05:58:57.238Z,79520
2016-06-18T05:59:57.272Z,79040
2016-06-18T06:01:12.810Z,79776
2016-06-18T06:01:57.357Z,77952
2016-06-18T06:02:57.377Z,78880
2016-06-18T06:03:57.411Z,82944
2016-06-18T06:04:57.445Z,83200
2016-06-18T06:05:57.480Z,79168
2016-06-18T06:06:57.828Z,77248
2016-06-18T06:07:57.550Z,77312
2016-06-18T06:08:57.584Z,79808
2016-06-18T06:09:58.260Z,80032
2016-06-18T06:10:57.654Z,73824
2016-06-18T06:11:57.705Z,65248
2016-06-18T06:13:57.757Z,75744
2016-06-18T06:14:57.793Z,73888
2016-06-18T06:15:57.843Z,72288
2016-06-18T06:17:12.772Z,71648
2016-06-18T06:17:57.913Z,73568
2016-06-18T06:19:12.857Z,74496
2016-06-18T06:19:58.575Z,76448
2016-06-18T06:20:58.032Z,73696
2016-06-18T06:21:58.051Z,75904
2016-06-18T06:22:58.085Z,76000
2016-06-18T06:24:13.030Z,72672
2016-06-18T06:24:58.155Z,68384
2016-06-18T06:26:58.241Z,67328
2016-06-18T06:27:58.276Z,68096
2016-06-18T06:28:58.297Z,73216
2016-06-18T06:29:58.347Z,64544
2016-06-18T06:30:58.383Z,64800
2016-06-18T06:32:13.938Z,70016
2016-06-18T06:32:59.047Z,71168
2016-06-18T06:33:58.489Z,71680
2016-06-18T06:34:58.523Z,68000
2016-06-18T06:35:58.558Z,63872
2016-06-18T06:36:58.593Z,28448
2016-06-18T06:37:58.643Z,66464
2016-06-18T06:38:58.662Z,47072
2016-06-18T06:40:13.607Z,64896
2016-06-18T06:40:58.764Z,70752
2016-06-18T06:42:13.707Z,71072
2016-06-18T06:42:58.817Z,67360
2016-06-18T06:43:58.852Z,46368
2016-06-18T06:45:58.921Z,57152
2016-06-18T06:46:58.957Z,61248
2016-06-18T06:47:59.631Z,80864
2016-06-18T06:48:59.041Z,54144
2016-06-18T06:49:59.076Z,59456
2016-06-18T06:50:59.721Z,68352
2016-06-18T06:51:59.145Z,68768
2016-06-18T06:52:59.181Z,68864
2016-06-18T06:53:59.214Z,67296
2016-06-18T06:54:59.859Z,67296
2016-06-18T06:55:59.284Z,65600
2016-06-18T06:56:59.334Z,66208
2016-06-18T06:57:59.963Z,72256
2016-06-18T06:58:59.404Z,66112
2016-06-18T07:00:14.348Z,69984
2016-06-18T07:01:14.384Z,21440
2016-06-18T07:01:59.509Z,49344
2016-06-18T07:04:14.486Z,63872
2016-06-18T07:04:59.643Z,63264
2016-06-18T07:05:59.647Z,57184
2016-06-18T07:06:59.729Z,63968
2016-06-18T07:07:59.732Z,66912
2016-06-18T07:08:59.767Z,66144
2016-06-18T07:10:14.695Z,52000
2016-06-18T07:10:59.820Z,39904
2016-06-18T07:11:59.871Z,16716
2016-06-18T07:12:59.906Z,17600
2016-06-18T07:13:59.940Z,20960
2016-06-18T07:14:59.975Z,62944
2016-06-18T07:16:00.040Z,17504
2016-06-18T07:17:00.653Z,72064
2016-06-18T07:18:00.063Z,27296
2016-06-18T07:19:00.113Z,20832
2016-06-18T07:20:15.059Z,25440
2016-06-18T07:21:00.184Z,60992
2016-06-18T07:22:00.217Z,34816
2016-06-18T07:23:15.162Z,20032
2016-06-18T07:24:00.287Z,62400
2016-06-18T07:26:15.282Z,56640
2016-06-18T07:27:00.391Z,59808
2016-06-18T07:28:00.427Z,22784
2016-06-18T07:29:00.491Z,26752
2016-06-18T07:30:15.404Z,27936
2016-06-18T07:31:15.440Z,62272
2016-06-18T07:32:00.565Z,35520
2016-06-18T07:33:00.600Z,64704
2016-06-18T07:35:00.654Z,28192
2016-06-18T07:36:15.645Z,63168
2016-06-18T07:37:00.739Z,64896
2016-06-18T07:38:15.682Z,16848
2016-06-18T07:39:01.401Z,21792
2016-06-18T07:40:00.858Z,19104
2016-06-18T07:41:15.787Z,59936
2016-06-18T07:42:00.928Z,33440
2016-06-18T07:43:00.946Z,14468
2016-06-18T07:44:00.981Z,40384
2016-06-18T07:45:15.925Z,64032
2016-06-18T07:46:01.050Z,60128
2016-06-18T07:48:01.121Z,62400
2016-06-18T07:49:01.155Z,30944
2016-06-18T07:50:01.189Z,61536
2016-06-18T07:51:01.224Z,58848
2016-06-18T07:52:16.168Z,66272
2016-06-18T07:53:01.293Z,24640
2016-06-18T07:54:01.328Z,61952
2016-06-18T07:55:01.362Z,62144
2016-06-18T07:56:01.398Z,60768
2016-06-18T07:57:02.026Z,58400
2016-06-18T07:58:01.483Z,61152
2016-06-18T07:59:01.487Z,61632
2016-06-18T08:00:01.537Z,55584
2016-06-18T08:01:01.571Z,53440
2016-06-18T08:02:01.622Z,58464
2016-06-18T08:03:02.250Z,18688
2016-06-18T08:04:01.676Z,33184
2016-06-18T08:05:01.741Z,55840
2016-06-18T08:06:01.761Z,52416
2016-06-18T08:07:16.689Z,32448
2016-06-18T08:08:01.798Z,26016
2016-06-18T08:10:01.899Z,15000
2016-06-18T08:11:01.918Z,12848
2016-06-18T08:12:02.593Z,14792
2016-06-18T08:13:02.004Z,22336
2016-06-18T08:14:02.023Z,25472
2016-06-18T08:15:16.968Z,21088
2016-06-18T08:16:17.001Z,12752
2016-06-18T08:17:17.036Z,22848
2016-06-18T08:18:02.161Z,23136
2016-06-18T08:19:02.211Z,23424
2016-06-18T08:20:02.247Z,23040
2016-06-18T08:21:02.266Z,24352
2016-06-18T08:22:02.300Z,14516
2016-06-18T08:23:02.334Z,13316
2016-06-18T08:24:17.295Z,20320
2016-06-18T08:25:02.482Z,10248
2016-06-18T08:26:02.455Z,9700
2016-06-18T08:27:02.474Z,9440
2016-06-18T08:28:02.524Z,10484
2016-06-18T08:29:02.559Z,21088
2016-06-18T08:30:03.171Z,21856
2016-06-18T08:31:02.612Z,13880
2016-06-18T08:33:17.592Z,13148
2016-06-18T08:34:02.733Z,13968
2016-06-18T08:35:17.645Z,18912
2016-06-18T08:36:02.786Z,13552
2016-06-18T08:37:02.837Z,12284
2016-06-18T08:38:02.855Z,12064
2016-06-18T08:39:18.393Z,11348
2016-06-18T08:40:02.925Z,11876
2016-06-18T08:41:02.944Z,18432
2016-06-18T08:42:02.979Z,13716
2016-06-18T08:43:03.013Z,12812
2016-06-18T08:44:03.738Z,12012
2016-06-18T08:47:12.969Z,16012
2016-06-18T08:47:50.219Z,23712
2016-06-18T08:48:35.382Z,23712
2016-06-18T08:49:35.419Z,22144
2016-06-18T08:50:35.440Z,21600
2016-06-18T08:51:35.460Z,21664
2016-06-18T08:52:50.403Z,21248
2016-06-18T08:53:36.174Z,20768
2016-06-18T08:55:50.510Z,20288
2016-06-18T08:56:35.638Z,14744
2016-06-18T08:58:35.708Z,20096
2016-06-18T08:59:35.743Z,20448
2016-06-18T09:00:35.793Z,11056
2016-06-18T09:02:36.459Z,11084
2016-06-18T09:03:35.882Z,10388
2016-06-18T09:04:35.918Z,11144
2016-06-18T09:05:36.578Z,19936
2016-06-18T09:06:36.581Z,14004
2016-06-18T09:08:36.682Z,18336
2016-06-18T09:09:36.061Z,19424
2016-06-18T09:10:36.111Z,22080
2016-06-18T09:11:36.129Z,21888
2016-06-18T09:12:36.789Z,20448
2016-06-18T09:14:51.140Z,20128
2016-06-18T09:15:36.284Z,20256
2016-06-18T09:16:36.303Z,12100
2016-06-18T09:17:36.354Z,12080
2016-06-18T09:20:15.566Z,12392
2016-06-18T09:21:15.022Z,12280
2016-06-18T09:22:15.041Z,12320
2016-06-18T09:23:15.670Z,12428
2016-06-18T09:24:30.017Z,13072
2016-06-18T09:25:15.130Z,12344
2016-06-18T09:26:15.164Z,11636
2016-06-18T09:27:15.840Z,10940
2016-06-18T09:28:15.281Z,9904
2016-06-18T09:29:15.284Z,8776
2016-06-18T09:30:15.272Z,8148
2016-06-18T09:31:15.870Z,7692
2016-06-18T09:32:30.842Z,7592
2016-06-18T09:33:15.939Z,7648
2016-06-18T09:34:30.286Z,7876
2016-06-18T09:35:16.009Z,7328
2016-06-18T09:36:15.434Z,6440
2016-06-18T09:37:16.062Z,5636
2016-06-18T09:38:15.487Z,4892
2016-06-18T09:39:30.445Z,4160
2016-06-18T09:40:15.557Z,3848
2016-06-18T09:41:15.670Z,3636
2016-06-18T09:42:15.626Z,3520
2016-06-18T09:43:15.646Z,3308
2016-06-18T09:44:15.664Z,3080
2016-06-18T09:45:16.340Z,3076
2016-06-18T09:46:15.734Z,3496
2016-06-18T09:47:30.737Z,4464
2016-06-18T09:48:30.725Z,4644
2016-06-18T09:50:16.466Z,4472
2016-06-18T09:51:30.814Z,4148
2016-06-18T09:52:15.958Z,3924
2016-06-18T09:53:15.946Z,3612
2016-06-18T09:54:30.902Z,3276
2016-06-18T09:55:16.671Z,3120
2016-06-18T09:57:16.069Z,2752
2016-06-18T09:58:17.322Z,2760
2016-06-18T09:59:16.138Z,2868
2016-06-18T10:00:16.767Z,2980
2016-06-18T10:01:17.223Z,3040
2016-06-18T10:02:16.758Z,3068
2016-06-18T10:03:16.870Z,3324
2016-06-18T10:04:16.296Z,3632
2016-06-18T10:05:16.315Z,3952
2016-06-18T10:06:31.272Z,4176
2016-06-18T10:07:16.369Z,4264
2016-06-18T10:08:16.404Z,4384
2016-06-18T10:09:31.361Z,4676
2016-06-18T10:10:16.473Z,4832
2016-06-18T10:11:31.414Z,5004
2016-06-18T10:12:16.512Z,5240
2016-06-18T10:13:16.562Z,5536
2016-06-18T10:16:16.634Z,6236
2016-06-18T10:17:17.294Z,6496
2016-06-18T10:18:17.297Z,6672
2016-06-18T10:19:16.723Z,6660
2016-06-18T10:20:16.743Z,6688
2016-06-18T10:21:17.418Z,6700
2016-06-18T10:23:31.768Z,6632
2016-06-18T10:24:18.068Z,6520
2016-06-18T10:25:17.525Z,6420
2016-06-18T10:26:16.950Z,6316
2016-06-18T10:27:31.891Z,6104
2016-06-18T10:28:17.019Z,5960
2016-06-18T10:29:17.023Z,5704
2016-06-18T10:30:17.057Z,5384
2016-06-18T10:31:17.077Z,4976
2016-06-18T10:32:17.111Z,4580
2016-06-18T10:34:17.165Z,4260
2016-06-18T10:35:17.825Z,4232
2016-06-18T10:36:17.828Z,4120
2016-06-18T10:37:17.269Z,4264
2016-06-18T10:38:17.320Z,4496
2016-06-18T10:39:17.308Z,4756
2016-06-18T10:40:17.342Z,5056
2016-06-18T10:41:17.377Z,5404
2016-06-18T10:42:17.396Z,5676
2016-06-18T10:43:32.352Z,6172
2016-06-18T10:44:18.058Z,6556
2016-06-18T10:45:17.485Z,7096
2016-06-18T10:46:17.520Z,7304
2016-06-18T10:48:17.588Z,7496
2016-06-18T10:50:17.627Z,7132
2016-06-18T10:51:17.677Z,6732
2016-06-18T10:52:17.681Z,6076
2016-06-18T10:53:32.637Z,4840
2016-06-18T10:54:17.735Z,4140
2016-06-18T10:55:17.769Z,3376
2016-06-18T10:56:17.819Z,3456
2016-06-18T10:57:17.823Z,3612
2016-06-18T10:58:17.857Z,3696
2016-06-18T10:59:32.815Z,3848
2016-06-18T11:00:17.912Z,4032
2016-06-18T11:01:17.947Z,4392
2016-06-18T11:02:17.965Z,4812
2016-06-18T11:03:18.594Z,5496
2016-06-18T11:04:18.035Z,6080
2016-06-18T11:05:18.695Z,6860
2016-06-18T11:06:18.089Z,8048
2016-06-18T11:07:18.749Z,11368
2016-06-18T11:09:18.162Z,15940
2016-06-18T11:10:18.790Z,13068
2016-06-18T11:12:18.250Z,16832
2016-06-18T11:13:18.269Z,16432
2016-06-18T11:14:33.241Z,15756
2016-06-18T11:15:18.323Z,15132
2016-06-18T11:16:18.373Z,14116
2016-06-18T11:17:18.392Z,13304
2016-06-18T11:18:19.021Z,12592
2016-06-18T11:19:18.446Z,11940
2016-06-18T11:21:18.516Z,10780
2016-06-18T11:22:18.535Z,10352
2016-06-18T11:23:19.162Z,9964
2016-06-18T11:24:19.198Z,9688
2016-06-18T11:25:18.652Z,9456
2016-06-18T11:26:34.234Z,9280
2016-06-18T11:27:18.691Z,7060
2016-06-18T11:28:19.912Z,7540
2016-06-18T11:29:33.666Z,5960
2016-06-18T11:30:18.763Z,5848
2016-06-18T11:31:18.798Z,5932
2016-06-18T11:32:18.834Z,9044
2016-06-18T11:33:18.852Z,9124
2016-06-18T11:34:18.886Z,9292
2016-06-18T11:41:21.307Z,6748
2016-06-18T11:42:20.732Z,7028
2016-06-18T11:43:21.361Z,7024
2016-06-18T11:44:20.803Z,6564
2016-06-18T11:45:20.821Z,6676
2016-06-18T11:46:20.871Z,6432
2016-06-18T11:47:35.814Z,6200
2016-06-18T11:48:21.550Z,6192
2016-06-18T11:49:40.445Z,6100
2016-06-18T11:50:35.901Z,7044
2016-06-18T11:51:20.999Z,8640
2016-06-18T11:52:35.940Z,6320
2016-06-18T11:53:21.053Z,6872
2016-06-18T11:55:21.106Z,8292
2016-06-18T11:56:21.735Z,8024
2016-06-18T11:57:21.160Z,7824
2016-06-18T11:58:21.196Z,7576
2016-06-18T11:59:21.826Z,7340
2016-06-18T12:00:21.251Z,7340
2016-06-18T12:01:21.881Z,7312
2016-06-18T12:02:21.307Z,7244
2016-06-18T12:03:21.343Z,7000
2016-06-18T12:04:21.379Z,6844
2016-06-18T12:05:36.319Z,6616
2016-06-18T12:06:36.339Z,6064
2016-06-18T12:07:21.452Z,5708
2016-06-18T12:08:36.409Z,5632
2016-06-18T12:09:21.506Z,5688
2016-06-18T12:10:21.541Z,5684
2016-06-18T12:11:21.560Z,5792
2016-06-18T12:12:21.595Z,5892
2016-06-18T12:13:21.630Z,5940
2016-06-18T12:14:21.648Z,6244
2016-06-18T12:15:37.215Z,6728
2016-06-18T12:16:21.719Z,6928
2016-06-18T12:17:22.347Z,7100
2016-06-18T12:18:22.383Z,7440
2016-06-18T12:19:21.823Z,7544
2016-06-18T12:20:21.859Z,7556
2016-06-18T12:21:36.785Z,7152
2016-06-18T12:22:21.897Z,6908
2016-06-18T12:23:22.525Z,6600
2016-06-18T12:24:36.873Z,6652
2016-06-18T12:25:21.970Z,6420
2016-06-18T12:26:22.005Z,6296
2016-06-18T12:27:22.023Z,6216
2016-06-18T12:28:22.043Z,6108
2016-06-18T12:30:22.112Z,5816
2016-06-18T12:31:22.131Z,5428
2016-06-18T12:32:22.181Z,4980
2016-06-18T12:33:22.201Z,4580
2016-06-18T12:34:22.219Z,4276
2016-06-18T12:35:22.254Z,4192
2016-06-18T12:36:23.493Z,4288
2016-06-18T12:37:22.308Z,4324
2016-06-18T12:38:22.953Z,4340
2016-06-18T12:39:22.972Z,4476
2016-06-18T12:40:37.929Z,4728
2016-06-18T12:41:22.447Z,4980
2016-06-18T12:42:22.450Z,5508
2016-06-18T12:43:22.501Z,5988
2016-06-18T12:44:22.521Z,6796
2016-06-18T12:45:22.555Z,10336
2016-06-18T12:46:22.574Z,12636
2016-06-18T12:47:22.609Z,11172
2016-06-18T12:48:22.643Z,11540
2016-06-18T12:49:22.663Z,11916
2016-06-18T12:50:22.681Z,11568
2016-06-18T12:51:22.717Z,10284
2016-06-18T12:52:22.752Z,9104
2016-06-18T12:53:23.975Z,10488
2016-06-18T12:54:22.821Z,9100
2016-06-18T12:56:38.408Z,8852
2016-06-18T12:57:22.880Z,8568
2016-06-18T12:58:22.946Z,9500
2016-06-18T12:59:22.949Z,9148
2016-06-18T13:00:23.609Z,7964
2016-06-18T13:01:23.003Z,8200
2016-06-18T13:02:23.038Z,8456
2016-06-18T13:03:23.057Z,7384
2016-06-18T13:04:23.091Z,8492
2016-06-18T13:05:38.048Z,8104
2016-06-18T13:06:23.160Z,6840
2016-06-18T13:07:23.180Z,7484
2016-06-18T13:08:38.136Z,9208
2016-06-18T13:09:38.781Z,7376
2016-06-18T13:10:23.862Z,6028
2016-06-18T13:11:38.819Z,7536
2016-06-18T13:12:38.259Z,6816
2016-06-18T13:13:23.951Z,6196
2016-06-18T13:14:24.595Z,6188
2016-06-18T13:15:24.066Z,5856
2016-06-18T13:16:24.039Z,5772
2016-06-18T13:17:24.073Z,6104
2016-06-18T13:18:24.108Z,6272
2016-06-18T13:19:24.127Z,6312
2016-06-18T13:20:24.147Z,6268
2016-06-18T13:21:23.603Z,6264
2016-06-18T13:22:24.216Z,6356
2016-06-18T13:23:39.158Z,6604
2016-06-18T13:24:24.256Z,6792
2016-06-18T13:25:39.229Z,7480
2016-06-18T13:26:24.327Z,7524
2016-06-18T13:27:38.676Z,7308
2016-06-18T13:28:24.399Z,7236
2016-06-18T13:29:24.434Z,6872
2016-06-18T13:30:24.438Z,6336
2016-06-18T13:31:39.989Z,5980
2016-06-18T13:32:24.508Z,6008
2016-06-18T13:35:25.192Z,5028
2016-06-18T13:36:24.617Z,5076
2016-06-18T13:37:25.246Z,5040
2016-06-18T13:38:24.062Z,4948
2016-06-18T13:39:24.706Z,4912
2016-06-18T13:42:24.779Z,4616
2016-06-18T13:43:39.126Z,4668
2016-06-18T13:44:24.849Z,4832
2016-06-18T13:45:39.790Z,5076
2016-06-18T13:46:24.294Z,5148
2016-06-18T13:47:24.328Z,5304
2016-06-18T13:48:24.362Z,5396
2016-06-18T13:50:24.416Z,5216
2016-06-18T13:51:24.436Z,5080
2016-06-18T13:52:24.486Z,4904
2016-06-18T13:54:25.133Z,4340
2016-06-18T13:55:24.574Z,4196
2016-06-18T13:56:25.171Z,4332
2016-06-18T13:57:24.612Z,4484
2016-06-18T13:59:39.586Z,4544
2016-06-18T14:01:40.246Z,4684
2016-06-18T14:02:25.342Z,4736
2016-06-18T14:03:25.361Z,4780
2016-06-18T14:04:40.317Z,4800
2016-06-18T14:05:25.430Z,4836
2016-06-18T14:07:25.484Z,4964
2016-06-18T14:08:25.517Z,4972
2016-06-18T14:09:25.583Z,4992
2016-06-18T14:10:25.572Z,4984
2016-06-18T14:11:25.606Z,4920
2016-06-18T14:12:25.657Z,4844
2016-06-18T14:13:40.582Z,4772
2016-06-18T14:14:25.085Z,4712
2016-06-18T14:16:25.732Z,4664
2016-06-18T14:17:25.768Z,4760
2016-06-18T14:18:25.818Z,4916
2016-06-18T14:19:25.228Z,5100
2016-06-18T14:20:25.856Z,5240
2016-06-18T14:22:25.894Z,5380
2016-06-18T14:23:25.945Z,5420
2016-06-18T14:24:25.964Z,5472
2016-06-18T14:25:25.999Z,5520
2016-06-18T14:26:26.017Z,5584
2016-06-18T14:27:26.053Z,5616
2016-06-18T14:28:26.087Z,5580
2016-06-18T14:29:26.090Z,5484
2016-06-18T14:30:40.469Z,5160
2016-06-18T14:31:26.191Z,4896
2016-06-18T14:33:26.234Z,4188
2016-06-18T14:34:26.256Z,3940
2016-06-18T14:35:26.292Z,3704
2016-06-18T14:36:26.298Z,3484
2016-06-18T14:37:26.975Z,3260
2016-06-18T14:38:26.978Z,3032